sensor_id;sensor_type;location;lat;lon;timestamp;pressure;altitude;pressure_sealevel;temperature
15701;BMP180;7950;42.744;23.174;2023-10-31T00:00:07;94566.56;;;9.79
15701;BMP180;7950;42.744;23.174;2023-10-31T00:02:38;94568.06;;;9.75
15701;BMP180;7950;42.744;23.174;2023-10-31T00:05:07;94570.28;;;9.67
15701;BMP180;7950;42.744;23.174;2023-10-31T00:07:37;94550.47;;;9.54
15701;BMP180;7950;42.744;23.174;2023-10-31T00:10:06;94553.78;;;9.66
15701;BMP180;7950;42.744;23.174;2023-10-31T00:12:36;94553.22;;;9.64
15701;BMP180;7950;42.744;23.174;2023-10-31T00:15:06;94552.94;;;9.44
15701;BMP180;7950;42.744;23.174;2023-10-31T00:17:35;94549.44;;;9.55
15701;BMP180;7950;42.744;23.174;2023-10-31T00:20:05;94556.88;;;9.63
15701;BMP180;7950;42.744;23.174;2023-10-31T00:22:34;94544.34;;;9.65
15701;BMP180;7950;42.744;23.174;2023-10-31T00:25:04;94533.06;;;9.65
15701;BMP180;7950;42.744;23.174;2023-10-31T00:27:33;94537.84;;;9.68
15701;BMP180;7950;42.744;23.174;2023-10-31T00:30:02;94532.44;;;9.74
15701;BMP180;7950;42.744;23.174;2023-10-31T00:32:31;94531.78;;;9.67
15701;BMP180;7950;42.744;23.174;2023-10-31T00:35:00;94533.72;;;9.55
15701;BMP180;7950;42.744;23.174;2023-10-31T00:42:05;94531.81;;;9.34
15701;BMP180;7950;42.744;23.174;2023-10-31T00:44:34;94519.84;;;9.22
15701;BMP180;7950;42.744;23.174;2023-10-31T00:47:02;94524.22;;;9.33
15701;BMP180;7950;42.744;23.174;2023-10-31T00:49:32;94522.63;;;9.32
15701;BMP180;7950;42.744;23.174;2023-10-31T00:52:01;94525.06;;;9.38
15701;BMP180;7950;42.744;23.174;2023-10-31T00:59:20;94527.38;;;9.35
15701;BMP180;7950;42.744;23.174;2023-10-31T01:01:48;94517.56;;;9.42
15701;BMP180;7950;42.744;23.174;2023-10-31T01:04:17;94514.88;;;9.37
15701;BMP180;7950;42.744;23.174;2023-10-31T01:06:46;94507.72;;;9.32
15701;BMP180;7950;42.744;23.174;2023-10-31T01:09:14;94523.91;;;9.46
15701;BMP180;7950;42.744;23.174;2023-10-31T01:11:43;94510.81;;;9.29
15701;BMP180;7950;42.744;23.174;2023-10-31T01:14:11;94501.06;;;9.25
15701;BMP180;7950;42.744;23.174;2023-10-31T01:16:41;94508.34;;;9.23
15701;BMP180;7950;42.744;23.174;2023-10-31T01:19:10;94512.81;;;9.22
15701;BMP180;7950;42.744;23.174;2023-10-31T01:21:38;94515.19;;;9.24
15701;BMP180;7950;42.744;23.174;2023-10-31T01:24:10;94512.31;;;9.25
15701;BMP180;7950;42.744;23.174;2023-10-31T01:31:10;94504.88;;;9.17
15701;BMP180;7950;42.744;23.174;2023-10-31T01:33:40;94500.25;;;9.24
15701;BMP180;7950;42.744;23.174;2023-10-31T01:36:09;94505.44;;;9.19
15701;BMP180;7950;42.744;23.174;2023-10-31T01:38:39;94500.28;;;9.07
15701;BMP180;7950;42.744;23.174;2023-10-31T01:41:08;94499.31;;;9.13
15701;BMP180;7950;42.744;23.174;2023-10-31T01:43:38;94496.16;;;9.12
15701;BMP180;7950;42.744;23.174;2023-10-31T01:46:07;94492.34;;;9.02
15701;BMP180;7950;42.744;23.174;2023-10-31T01:53:08;94494.41;;;9.00
15701;BMP180;7950;42.744;23.174;2023-10-31T01:55:37;94494.00;;;8.92
15701;BMP180;7950;42.744;23.174;2023-10-31T01:58:05;94487.13;;;8.86
15701;BMP180;7950;42.744;23.174;2023-10-31T02:00:34;94492.16;;;8.76
15701;BMP180;7950;42.744;23.174;2023-10-31T02:03:04;94485.28;;;8.70
15701;BMP180;7950;42.744;23.174;2023-10-31T02:05:33;94484.16;;;8.82
15701;BMP180;7950;42.744;23.174;2023-10-31T02:12:41;94482.13;;;8.68
15701;BMP180;7950;42.744;23.174;2023-10-31T02:15:37;94482.59;;;8.65
15701;BMP180;7950;42.744;23.174;2023-10-31T02:18:06;94487.00;;;8.48
15701;BMP180;7950;42.744;23.174;2023-10-31T02:20:36;94482.78;;;8.47
15701;BMP180;7950;42.744;23.174;2023-10-31T02:23:06;94480.56;;;8.39
15701;BMP180;7950;42.744;23.174;2023-10-31T02:25:35;94474.94;;;8.47
15701;BMP180;7950;42.744;23.174;2023-10-31T02:28:03;94486.88;;;8.26
15701;BMP180;7950;42.744;23.174;2023-10-31T02:30:33;94478.31;;;8.31
15701;BMP180;7950;42.744;23.174;2023-10-31T02:33:03;94483.31;;;8.32
15701;BMP180;7950;42.744;23.174;2023-10-31T02:35:31;94491.56;;;8.41
15701;BMP180;7950;42.744;23.174;2023-10-31T02:38:00;94498.53;;;8.35
15701;BMP180;7950;42.744;23.174;2023-10-31T02:40:29;94487.19;;;8.30
15701;BMP180;7950;42.744;23.174;2023-10-31T02:42:58;94493.94;;;8.42
15701;BMP180;7950;42.744;23.174;2023-10-31T02:45:26;94480.38;;;8.29
15701;BMP180;7950;42.744;23.174;2023-10-31T02:47:55;94488.63;;;8.37
15701;BMP180;7950;42.744;23.174;2023-10-31T02:50:24;94495.41;;;8.22
15701;BMP180;7950;42.744;23.174;2023-10-31T02:52:55;94472.94;;;8.09
15701;BMP180;7950;42.744;23.174;2023-10-31T02:55:23;94486.09;;;8.14
15701;BMP180;7950;42.744;23.174;2023-10-31T02:57:53;94487.47;;;8.05
15701;BMP180;7950;42.744;23.174;2023-10-31T03:00:22;94481.22;;;8.06
15701;BMP180;7950;42.744;23.174;2023-10-31T03:02:51;94478.66;;;7.95
15701;BMP180;7950;42.744;23.174;2023-10-31T03:05:19;94481.03;;;7.96
15701;BMP180;7950;42.744;23.174;2023-10-31T03:07:48;94477.28;;;7.92
15701;BMP180;7950;42.744;23.174;2023-10-31T03:10:17;94473.69;;;7.82
15701;BMP180;7950;42.744;23.174;2023-10-31T03:12:45;94473.59;;;7.77
15701;BMP180;7950;42.744;23.174;2023-10-31T03:15:15;94480.19;;;7.68
15701;BMP180;7950;42.744;23.174;2023-10-31T03:17:44;94474.97;;;7.68
15701;BMP180;7950;42.744;23.174;2023-10-31T03:20:12;94472.16;;;7.58
15701;BMP180;7950;42.744;23.174;2023-10-31T03:22:41;94466.00;;;7.64
15701;BMP180;7950;42.744;23.174;2023-10-31T03:25:09;94466.13;;;7.69
15701;BMP180;7950;42.744;23.174;2023-10-31T03:27:38;94481.81;;;7.57
15701;BMP180;7950;42.744;23.174;2023-10-31T03:30:08;94475.31;;;7.60
15701;BMP180;7950;42.744;23.174;2023-10-31T03:37:15;94470.03;;;7.32
15701;BMP180;7950;42.744;23.174;2023-10-31T03:39:43;94460.50;;;7.49
15701;BMP180;7950;42.744;23.174;2023-10-31T03:42:12;94462.63;;;7.52
15701;BMP180;7950;42.744;23.174;2023-10-31T03:44:40;94460.81;;;7.52
15701;BMP180;7950;42.744;23.174;2023-10-31T03:47:09;94468.78;;;7.46
15701;BMP180;7950;42.744;23.174;2023-10-31T03:49:39;94471.94;;;7.48
15701;BMP180;7950;42.744;23.174;2023-10-31T03:52:07;94452.66;;;7.49
15701;BMP180;7950;42.744;23.174;2023-10-31T03:54:37;94457.50;;;7.57
15701;BMP180;7950;42.744;23.174;2023-10-31T03:57:06;94471.81;;;7.43
15701;BMP180;7950;42.744;23.174;2023-10-31T03:59:36;94463.91;;;7.38
15701;BMP180;7950;42.744;23.174;2023-10-31T04:02:05;94466.50;;;7.38
15701;BMP180;7950;42.744;23.174;2023-10-31T04:04:34;94458.91;;;7.36
15701;BMP180;7950;42.744;23.174;2023-10-31T04:07:02;94459.81;;;7.42
15701;BMP180;7950;42.744;23.174;2023-10-31T04:09:31;94452.53;;;7.44
15701;BMP180;7950;42.744;23.174;2023-10-31T04:12:01;94437.34;;;7.41
15701;BMP180;7950;42.744;23.174;2023-10-31T04:14:29;94433.59;;;7.37
15701;BMP180;7950;42.744;23.174;2023-10-31T04:16:58;94448.81;;;7.40
15701;BMP180;7950;42.744;23.174;2023-10-31T04:19:26;94454.25;;;7.38
15701;BMP180;7950;42.744;23.174;2023-10-31T04:21:55;94457.88;;;7.26
15701;BMP180;7950;42.744;23.174;2023-10-31T04:24:23;94451.53;;;7.22
15701;BMP180;7950;42.744;23.174;2023-10-31T04:31:44;94451.31;;;7.46
15701;BMP180;7950;42.744;23.174;2023-10-31T04:34:13;94454.28;;;7.27
15701;BMP180;7950;42.744;23.174;2023-10-31T04:36:41;94454.50;;;7.25
15701;BMP180;7950;42.744;23.174;2023-10-31T04:43:47;94463.47;;;7.29
15701;BMP180;7950;42.744;23.174;2023-10-31T04:46:15;94473.44;;;7.09
15701;BMP180;7950;42.744;23.174;2023-10-31T04:53:37;94468.09;;;7.16
15701;BMP180;7950;42.744;23.174;2023-10-31T04:56:12;94459.59;;;7.32
15701;BMP180;7950;42.744;23.174;2023-10-31T04:58:41;94457.34;;;7.24
15701;BMP180;7950;42.744;23.174;2023-10-31T05:01:11;94468.69;;;7.18
15701;BMP180;7950;42.744;23.174;2023-10-31T05:03:40;94468.09;;;7.16
15701;BMP180;7950;42.744;23.174;2023-10-31T05:06:08;94470.59;;;7.22
15701;BMP180;7950;42.744;23.174;2023-10-31T05:08:38;94463.22;;;7.19
15701;BMP180;7950;42.744;23.174;2023-10-31T05:11:07;94470.50;;;7.17
15701;BMP180;7950;42.744;23.174;2023-10-31T05:13:36;94473.91;;;7.29
15701;BMP180;7950;42.744;23.174;2023-10-31T05:16:07;94466.84;;;7.30
15701;BMP180;7950;42.744;23.174;2023-10-31T05:18:37;94474.09;;;7.39
15701;BMP180;7950;42.744;23.174;2023-10-31T05:25:38;94468.75;;;7.97
15701;BMP180;7950;42.744;23.174;2023-10-31T05:28:06;94471.09;;;8.21
15701;BMP180;7950;42.744;23.174;2023-10-31T05:30:35;94463.91;;;8.45
15701;BMP180;7950;42.744;23.174;2023-10-31T05:33:04;94471.56;;;8.63
15701;BMP180;7950;42.744;23.174;2023-10-31T05:35:33;94477.44;;;8.86
15701;BMP180;7950;42.744;23.174;2023-10-31T05:38:02;94482.69;;;9.20
15701;BMP180;7950;42.744;23.174;2023-10-31T05:40:30;94493.91;;;9.53
15701;BMP180;7950;42.744;23.174;2023-10-31T05:43:03;94500.66;;;9.49
15701;BMP180;7950;42.744;23.174;2023-10-31T05:45:32;94497.63;;;9.79
15701;BMP180;7950;42.744;23.174;2023-10-31T05:48:01;94488.19;;;9.99
15701;BMP180;7950;42.744;23.174;2023-10-31T05:50:31;94509.78;;;10.49
15701;BMP180;7950;42.744;23.174;2023-10-31T05:52:59;94502.22;;;10.84
15701;BMP180;7950;42.744;23.174;2023-10-31T05:55:28;94504.88;;;11.16
15701;BMP180;7950;42.744;23.174;2023-10-31T05:57:56;94518.53;;;11.54
15701;BMP180;7950;42.744;23.174;2023-10-31T06:00:26;94518.00;;;11.84
15701;BMP180;7950;42.744;23.174;2023-10-31T06:07:47;94511.94;;;12.50
15701;BMP180;7950;42.744;23.174;2023-10-31T06:10:16;94511.25;;;12.94
15701;BMP180;7950;42.744;23.174;2023-10-31T06:12:44;94508.66;;;13.24
15701;BMP180;7950;42.744;23.174;2023-10-31T06:15:13;94506.03;;;13.54
15701;BMP180;7950;42.744;23.174;2023-10-31T06:17:43;94513.88;;;13.74
15701;BMP180;7950;42.744;23.174;2023-10-31T06:20:12;94508.81;;;13.98
15701;BMP180;7950;42.744;23.174;2023-10-31T06:22:40;94506.41;;;14.21
15701;BMP180;7950;42.744;23.174;2023-10-31T06:25:12;94501.63;;;14.33
15701;BMP180;7950;42.744;23.174;2023-10-31T06:27:43;94496.09;;;14.78
15701;BMP180;7950;42.744;23.174;2023-10-31T06:34:44;94488.63;;;15.62
15701;BMP180;7950;42.744;23.174;2023-10-31T06:37:13;94485.81;;;15.77
15701;BMP180;7950;42.744;23.174;2023-10-31T06:39:41;94473.09;;;15.79
15701;BMP180;7950;42.744;23.174;2023-10-31T06:42:10;94472.72;;;16.14
15701;BMP180;7950;42.744;23.174;2023-10-31T06:44:38;94485.31;;;16.46
15701;BMP180;7950;42.744;23.174;2023-10-31T06:47:07;94487.94;;;16.70
15701;BMP180;7950;42.744;23.174;2023-10-31T06:49:35;94477.91;;;16.48
15701;BMP180;7950;42.744;23.174;2023-10-31T06:52:06;94479.06;;;16.79
15701;BMP180;7950;42.744;23.174;2023-10-31T06:54:35;94490.56;;;17.25
15701;BMP180;7950;42.744;23.174;2023-10-31T07:01:55;94485.78;;;18.18
15701;BMP180;7950;42.744;23.174;2023-10-31T07:04:24;94478.88;;;18.04
15701;BMP180;7950;42.744;23.174;2023-10-31T07:06:52;94473.38;;;18.27
15701;BMP180;7950;42.744;23.174;2023-10-31T07:14:03;94464.84;;;18.03
15701;BMP180;7950;42.744;23.174;2023-10-31T07:16:32;94461.72;;;18.42
15701;BMP180;7950;42.744;23.174;2023-10-31T07:19:01;94462.00;;;18.54
15701;BMP180;7950;42.744;23.174;2023-10-31T07:21:29;94448.88;;;18.71
15701;BMP180;7950;42.744;23.174;2023-10-31T07:23:58;94445.88;;;18.86
15701;BMP180;7950;42.744;23.174;2023-10-31T07:26:27;94441.19;;;19.05
15701;BMP180;7950;42.744;23.174;2023-10-31T07:28:55;94452.53;;;19.19
15701;BMP180;7950;42.744;23.174;2023-10-31T07:31:25;94448.19;;;19.67
15701;BMP180;7950;42.744;23.174;2023-10-31T07:33:54;94452.44;;;19.68
15701;BMP180;7950;42.744;23.174;2023-10-31T07:40:56;94436.75;;;19.97
15701;BMP180;7950;42.744;23.174;2023-10-31T07:43:25;94437.16;;;19.82
15701;BMP180;7950;42.744;23.174;2023-10-31T07:50:46;94436.34;;;20.59
15701;BMP180;7950;42.744;23.174;2023-10-31T07:53:15;94432.84;;;20.33
15701;BMP180;7950;42.744;23.174;2023-10-31T07:55:43;94435.88;;;20.49
15701;BMP180;7950;42.744;23.174;2023-10-31T07:58:12;94430.03;;;20.47
15701;BMP180;7950;42.744;23.174;2023-10-31T08:00:41;94424.59;;;20.60
15701;BMP180;7950;42.744;23.174;2023-10-31T08:03:09;94421.78;;;20.82
15701;BMP180;7950;42.744;23.174;2023-10-31T08:05:38;94422.59;;;20.83
15701;BMP180;7950;42.744;23.174;2023-10-31T08:08:08;94417.44;;;20.95
15701;BMP180;7950;42.744;23.174;2023-10-31T08:15:08;94397.34;;;21.23
15701;BMP180;7950;42.744;23.174;2023-10-31T08:17:37;94396.69;;;21.26
15701;BMP180;7950;42.744;23.174;2023-10-31T08:20:06;94390.28;;;21.27
15701;BMP180;7950;42.744;23.174;2023-10-31T08:22:36;94380.06;;;21.29
15701;BMP180;7950;42.744;23.174;2023-10-31T08:25:08;94383.97;;;21.31
15701;BMP180;7950;42.744;23.174;2023-10-31T08:27:36;94389.44;;;21.52
15701;BMP180;7950;42.744;23.174;2023-10-31T08:30:07;94373.91;;;21.45
15701;BMP180;7950;42.744;23.174;2023-10-31T08:32:36;94385.06;;;21.39
15701;BMP180;7950;42.744;23.174;2023-10-31T08:35:05;94366.22;;;21.44
15701;BMP180;7950;42.744;23.174;2023-10-31T08:37:34;94370.63;;;21.40
15701;BMP180;7950;42.744;23.174;2023-10-31T08:40:03;94348.28;;;21.53
15701;BMP180;7950;42.744;23.174;2023-10-31T08:42:33;94351.00;;;21.44
15701;BMP180;7950;42.744;23.174;2023-10-31T08:54:23;94332.28;;;21.53
15701;BMP180;7950;42.744;23.174;2023-10-31T08:56:51;94317.66;;;21.59
15701;BMP180;7950;42.744;23.174;2023-10-31T08:59:21;94323.94;;;21.63
15701;BMP180;7950;42.744;23.174;2023-10-31T09:01:50;94324.44;;;21.56
15701;BMP180;7950;42.744;23.174;2023-10-31T09:04:18;94307.03;;;21.88
15701;BMP180;7950;42.744;23.174;2023-10-31T09:06:47;94320.03;;;21.98
15701;BMP180;7950;42.744;23.174;2023-10-31T09:09:16;94310.47;;;21.88
15701;BMP180;7950;42.744;23.174;2023-10-31T09:11:44;94306.75;;;21.81
15701;BMP180;7950;42.744;23.174;2023-10-31T09:14:13;94296.72;;;21.78
15701;BMP180;7950;42.744;23.174;2023-10-31T09:16:43;94305.50;;;22.07
15701;BMP180;7950;42.744;23.174;2023-10-31T09:19:12;94292.75;;;22.13
15701;BMP180;7950;42.744;23.174;2023-10-31T09:21:41;94288.72;;;22.07
15701;BMP180;7950;42.744;23.174;2023-10-31T09:24:10;94292.53;;;21.97
15701;BMP180;7950;42.744;23.174;2023-10-31T09:31:29;94269.84;;;22.03
15701;BMP180;7950;42.744;23.174;2023-10-31T09:38:36;94255.44;;;21.67
15701;BMP180;7950;42.744;23.174;2023-10-31T09:41:05;94250.13;;;21.58
15701;BMP180;7950;42.744;23.174;2023-10-31T09:43:34;94243.38;;;21.61
15701;BMP180;7950;42.744;23.174;2023-10-31T09:50:52;94227.91;;;21.46
15701;BMP180;7950;42.744;23.174;2023-10-31T09:53:23;94215.28;;;21.26
15701;BMP180;7950;42.744;23.174;2023-10-31T09:55:54;94213.69;;;20.96
15701;BMP180;7950;42.744;23.174;2023-10-31T09:58:24;94209.44;;;20.78
15701;BMP180;7950;42.744;23.174;2023-10-31T10:00:52;94202.09;;;20.66
15701;BMP180;7950;42.744;23.174;2023-10-31T10:03:22;94193.03;;;20.59
15701;BMP180;7950;42.744;23.174;2023-10-31T10:05:52;94190.09;;;20.52
15701;BMP180;7950;42.744;23.174;2023-10-31T10:08:21;94186.94;;;20.58
15701;BMP180;7950;42.744;23.174;2023-10-31T10:10:50;94177.69;;;20.47
15701;BMP180;7950;42.744;23.174;2023-10-31T10:13:22;94167.53;;;20.32
15701;BMP180;7950;42.744;23.174;2023-10-31T10:15:51;94155.47;;;20.26
15701;BMP180;7950;42.744;23.174;2023-10-31T10:18:28;94170.06;;;19.95
15701;BMP180;7950;42.744;23.174;2023-10-31T10:20:59;94166.75;;;20.06
15701;BMP180;7950;42.744;23.174;2023-10-31T10:23:29;94162.22;;;20.24
15701;BMP180;7950;42.744;23.174;2023-10-31T10:30:32;94155.94;;;20.37
15701;BMP180;7950;42.744;23.174;2023-10-31T10:33:03;94148.72;;;20.29
15701;BMP180;7950;42.744;23.174;2023-10-31T10:35:32;94141.22;;;20.31
15701;BMP180;7950;42.744;23.174;2023-10-31T10:38:05;94124.16;;;20.23
15701;BMP180;7950;42.744;23.174;2023-10-31T10:40:37;94116.47;;;20.13
15701;BMP180;7950;42.744;23.174;2023-10-31T10:43:12;94114.00;;;20.17
15701;BMP180;7950;42.744;23.174;2023-10-31T10:45:44;94115.53;;;20.18
15701;BMP180;7950;42.744;23.174;2023-10-31T10:48:16;94110.53;;;20.16
15701;BMP180;7950;42.744;23.174;2023-10-31T10:50:53;94116.47;;;20.05
15701;BMP180;7950;42.744;23.174;2023-10-31T10:53:30;94119.44;;;20.03
15701;BMP180;7950;42.744;23.174;2023-10-31T11:00:27;94100.19;;;20.15
15701;BMP180;7950;42.744;23.174;2023-10-31T11:02:59;94100.50;;;20.05
15701;BMP180;7950;42.744;23.174;2023-10-31T11:10:00;94087.84;;;19.68
15701;BMP180;7950;42.744;23.174;2023-10-31T11:17:11;94075.28;;;19.94
15701;BMP180;7950;42.744;23.174;2023-10-31T11:19:43;94068.88;;;19.95
15701;BMP180;7950;42.744;23.174;2023-10-31T11:22:11;94061.50;;;20.00
15701;BMP180;7950;42.744;23.174;2023-10-31T11:24:42;94058.84;;;19.92
15701;BMP180;7950;42.744;23.174;2023-10-31T11:27:10;94055.41;;;20.00
15701;BMP180;7950;42.744;23.174;2023-10-31T11:29:40;94058.38;;;19.98
15701;BMP180;7950;42.744;23.174;2023-10-31T11:32:15;94048.97;;;20.01
15701;BMP180;7950;42.744;23.174;2023-10-31T11:34:46;94049.13;;;20.04
15701;BMP180;7950;42.744;23.174;2023-10-31T11:41:55;94035.81;;;20.04
15701;BMP180;7950;42.744;23.174;2023-10-31T11:44:26;94029.84;;;20.16
15701;BMP180;7950;42.744;23.174;2023-10-31T11:51:33;94035.16;;;20.16
15701;BMP180;7950;42.744;23.174;2023-10-31T11:54:03;94015.16;;;20.10
15701;BMP180;7950;42.744;23.174;2023-10-31T12:01:08;94013.59;;;20.09
15701;BMP180;7950;42.744;23.174;2023-10-31T12:08:30;94002.91;;;20.17
15701;BMP180;7950;42.744;23.174;2023-10-31T12:15:38;93981.41;;;20.60
15701;BMP180;7950;42.744;23.174;2023-10-31T12:22:43;93971.88;;;20.79
15701;BMP180;7950;42.744;23.174;2023-10-31T12:25:14;93977.41;;;21.03
15701;BMP180;7950;42.744;23.174;2023-10-31T12:27:44;93960.94;;;21.22
15701;BMP180;7950;42.744;23.174;2023-10-31T12:30:15;93950.06;;;21.27
15701;BMP180;7950;42.744;23.174;2023-10-31T12:32:45;93943.69;;;21.40
15701;BMP180;7950;42.744;23.174;2023-10-31T12:35:23;93937.31;;;21.32
15701;BMP180;7950;42.744;23.174;2023-10-31T12:37:52;93931.84;;;21.29
15701;BMP180;7950;42.744;23.174;2023-10-31T12:40:23;93926.91;;;21.19
15701;BMP180;7950;42.744;23.174;2023-10-31T12:47:42;93948.59;;;20.97
15701;BMP180;7950;42.744;23.174;2023-10-31T12:54:42;93948.00;;;20.91
15701;BMP180;7950;42.744;23.174;2023-10-31T12:57:13;93940.78;;;20.92
15701;BMP180;7950;42.744;23.174;2023-10-31T12:59:41;93946.69;;;20.97
15701;BMP180;7950;42.744;23.174;2023-10-31T13:02:16;93938.25;;;20.95
15701;BMP180;7950;42.744;23.174;2023-10-31T13:04:45;93944.69;;;20.94
15701;BMP180;7950;42.744;23.174;2023-10-31T13:07:14;93938.56;;;20.94
15701;BMP180;7950;42.744;23.174;2023-10-31T13:09:42;93940.28;;;20.90
15701;BMP180;7950;42.744;23.174;2023-10-31T13:12:12;93939.16;;;20.99
15701;BMP180;7950;42.744;23.174;2023-10-31T13:14:41;93928.88;;;21.10
15701;BMP180;7950;42.744;23.174;2023-10-31T13:17:10;93928.69;;;21.15
15701;BMP180;7950;42.744;23.174;2023-10-31T13:19:38;93922.81;;;21.21
15701;BMP180;7950;42.744;23.174;2023-10-31T13:36:06;93909.47;;;21.86
15701;BMP180;7950;42.744;23.174;2023-10-31T13:38:39;93906.25;;;21.93
15701;BMP180;7950;42.744;23.174;2023-10-31T13:41:07;93896.81;;;21.95
15701;BMP180;7950;42.744;23.174;2023-10-31T13:48:10;93880.44;;;21.97
15701;BMP180;7950;42.744;23.174;2023-10-31T13:50:40;93887.78;;;22.00
15701;BMP180;7950;42.744;23.174;2023-10-31T13:53:10;93911.38;;;21.98
15701;BMP180;7950;42.744;23.174;2023-10-31T13:56:23;93918.03;;;21.92
15701;BMP180;7950;42.744;23.174;2023-10-31T13:58:51;93921.13;;;21.82
15701;BMP180;7950;42.744;23.174;2023-10-31T14:01:20;93921.69;;;21.75
15701;BMP180;7950;42.744;23.174;2023-10-31T14:03:52;93911.22;;;21.70
15701;BMP180;7950;42.744;23.174;2023-10-31T14:06:21;93903.41;;;21.65
15701;BMP180;7950;42.744;23.174;2023-10-31T14:08:51;93894.16;;;21.63
15701;BMP180;7950;42.744;23.174;2023-10-31T14:11:20;93911.25;;;21.50
15701;BMP180;7950;42.744;23.174;2023-10-31T14:18:39;93904.50;;;20.99
15701;BMP180;7950;42.744;23.174;2023-10-31T14:21:09;93908.94;;;20.87
15701;BMP180;7950;42.744;23.174;2023-10-31T14:23:38;93902.31;;;20.72
15701;BMP180;7950;42.744;23.174;2023-10-31T14:26:08;93912.09;;;20.60
15701;BMP180;7950;42.744;23.174;2023-10-31T14:28:37;93916.25;;;20.49
15701;BMP180;7950;42.744;23.174;2023-10-31T14:31:06;93907.88;;;20.38
15701;BMP180;7950;42.744;23.174;2023-10-31T14:33:35;93902.94;;;20.20
15701;BMP180;7950;42.744;23.174;2023-10-31T14:40:35;93920.28;;;19.88
15701;BMP180;7950;42.744;23.174;2023-10-31T14:48:03;93912.28;;;19.51
15701;BMP180;7950;42.744;23.174;2023-10-31T14:59:45;93896.66;;;18.98
15701;BMP180;7950;42.744;23.174;2023-10-31T15:02:15;93894.78;;;18.99
15701;BMP180;7950;42.744;23.174;2023-10-31T15:09:21;93893.28;;;19.61
15701;BMP180;7950;42.744;23.174;2023-10-31T15:11:49;93879.47;;;19.76
15701;BMP180;7950;42.744;23.174;2023-10-31T15:14:18;93894.41;;;19.97
15701;BMP180;7950;42.744;23.174;2023-10-31T15:16:47;93881.69;;;20.03
15701;BMP180;7950;42.744;23.174;2023-10-31T15:19:15;93874.16;;;20.13
15701;BMP180;7950;42.744;23.174;2023-10-31T15:26:36;93871.50;;;20.05
15701;BMP180;7950;42.744;23.174;2023-10-31T15:29:06;93866.38;;;20.00
15701;BMP180;7950;42.744;23.174;2023-10-31T15:31:34;93876.13;;;19.87
15701;BMP180;7950;42.744;23.174;2023-10-31T15:38:40;93875.47;;;19.53
15701;BMP180;7950;42.744;23.174;2023-10-31T15:41:09;93877.53;;;19.47
15701;BMP180;7950;42.744;23.174;2023-10-31T15:43:45;93874.09;;;19.47
15701;BMP180;7950;42.744;23.174;2023-10-31T15:51:04;93882.69;;;19.52
15701;BMP180;7950;42.744;23.174;2023-10-31T15:53:33;93901.81;;;19.46
15701;BMP180;7950;42.744;23.174;2023-10-31T15:56:02;93901.19;;;19.40
15701;BMP180;7950;42.744;23.174;2023-10-31T15:58:36;93908.22;;;19.36
15701;BMP180;7950;42.744;23.174;2023-10-31T16:01:07;93920.41;;;19.37
15701;BMP180;7950;42.744;23.174;2023-10-31T16:03:35;93916.06;;;19.24
15701;BMP180;7950;42.744;23.174;2023-10-31T16:06:05;93923.38;;;19.19
15701;BMP180;7950;42.744;23.174;2023-10-31T16:08:34;93911.19;;;19.18
15701;BMP180;7950;42.744;23.174;2023-10-31T16:11:07;93923.41;;;19.27
15701;BMP180;7950;42.744;23.174;2023-10-31T16:13:36;93930.28;;;19.20
15701;BMP180;7950;42.744;23.174;2023-10-31T16:20:33;93936.38;;;19.37
15701;BMP180;7950;42.744;23.174;2023-10-31T16:23:02;93933.41;;;19.39
15701;BMP180;7950;42.744;23.174;2023-10-31T16:25:31;93939.03;;;19.46
15701;BMP180;7950;42.744;23.174;2023-10-31T16:27:59;93929.47;;;19.53
15701;BMP180;7950;42.744;23.174;2023-10-31T16:35:18;93935.63;;;19.37
15701;BMP180;7950;42.744;23.174;2023-10-31T16:37:48;93938.88;;;19.42
15701;BMP180;7950;42.744;23.174;2023-10-31T16:40:19;93927.47;;;19.42
15701;BMP180;7950;42.744;23.174;2023-10-31T16:42:47;93938.38;;;19.49
15701;BMP180;7950;42.744;23.174;2023-10-31T16:49:41;93930.56;;;19.10
15701;BMP180;7950;42.744;23.174;2023-10-31T16:56:49;93923.09;;;19.12
15701;BMP180;7950;42.744;23.174;2023-10-31T17:04:01;93926.84;;;19.28
15701;BMP180;7950;42.744;23.174;2023-10-31T17:06:30;93917.13;;;19.32
15701;BMP180;7950;42.744;23.174;2023-10-31T17:08:59;93912.00;;;19.35
15701;BMP180;7950;42.744;23.174;2023-10-31T17:11:27;93920.25;;;19.42
15701;BMP180;7950;42.744;23.174;2023-10-31T17:18:47;93917.41;;;19.56
15701;BMP180;7950;42.744;23.174;2023-10-31T17:25:46;93927.13;;;19.52
15701;BMP180;7950;42.744;23.174;2023-10-31T17:28:15;93935.91;;;19.44
15701;BMP180;7950;42.744;23.174;2023-10-31T17:30:44;93943.13;;;19.35
15701;BMP180;7950;42.744;23.174;2023-10-31T17:38:00;93939.66;;;19.00
15701;BMP180;7950;42.744;23.174;2023-10-31T17:40:28;93934.97;;;18.89
15701;BMP180;7950;42.744;23.174;2023-10-31T17:42:57;93935.75;;;18.81
15701;BMP180;7950;42.744;23.174;2023-10-31T17:45:26;93937.47;;;18.77
15701;BMP180;7950;42.744;23.174;2023-10-31T17:47:54;93944.66;;;18.68
15701;BMP180;7950;42.744;23.174;2023-10-31T17:55:02;93925.31;;;18.28
15701;BMP180;7950;42.744;23.174;2023-10-31T17:57:30;93928.81;;;18.46
15701;BMP180;7950;42.744;23.174;2023-10-31T17:59:59;93919.63;;;18.60
15701;BMP180;7950;42.744;23.174;2023-10-31T18:02:28;93913.72;;;18.72
15701;BMP180;7950;42.744;23.174;2023-10-31T18:04:57;93902.13;;;18.76
15701;BMP180;7950;42.744;23.174;2023-10-31T18:07:29;93897.44;;;18.82
15701;BMP180;7950;42.744;23.174;2023-10-31T18:09:58;93895.72;;;18.86
15701;BMP180;7950;42.744;23.174;2023-10-31T18:12:27;93904.66;;;18.90
15701;BMP180;7950;42.744;23.174;2023-10-31T18:14:56;93898.38;;;18.86
15701;BMP180;7950;42.744;23.174;2023-10-31T18:17:24;93904.81;;;18.85
15701;BMP180;7950;42.744;23.174;2023-10-31T18:19:53;93908.56;;;18.84
15701;BMP180;7950;42.744;23.174;2023-10-31T18:22:21;93906.19;;;18.74
15701;BMP180;7950;42.744;23.174;2023-10-31T18:24:50;93905.25;;;18.70
15701;BMP180;7950;42.744;23.174;2023-10-31T18:36:28;93906.34;;;18.69
15701;BMP180;7950;42.744;23.174;2023-10-31T18:39:06;93893.69;;;18.66
15701;BMP180;7950;42.744;23.174;2023-10-31T19:03:59;93923.50;;;17.59
15701;BMP180;7950;42.744;23.174;2023-10-31T19:10:53;93921.84;;;17.72
15701;BMP180;7950;42.744;23.174;2023-10-31T19:13:22;93924.69;;;17.84
15701;BMP180;7950;42.744;23.174;2023-10-31T19:20:19;93930.91;;;18.10
15701;BMP180;7950;42.744;23.174;2023-10-31T19:27:38;93932.25;;;18.38
15701;BMP180;7950;42.744;23.174;2023-10-31T19:34:38;93938.19;;;18.52
15701;BMP180;7950;42.744;23.174;2023-10-31T19:37:09;93935.72;;;18.55